Time;durP1;ratioP1;P1;durP2;ratioP2;P2;SDS_P1;SDS_P2;PMS_P1;PMS_P2;Temp;Humidity;BMP_temperature;BMP_pressure;BME280_temperature;BME280_humidity;BME280_pressure;Samples;Min_cycle;Max_cycle;Signal;HPM_P1;HPM_P2
2022/09/27 00:00:23;;;;;;;2.05;1.10;;;14.20;80.80;;;;;;4992536;28;20043;-74
2022/09/27 00:02:50;;;;;;;2.47;1.17;;;14.20;80.80;;;;;;4968317;28;20831;-74
2022/09/27 00:05:16;;;;;;;2.63;1.10;;;14.10;80.70;;;;;;4977372;28;20042;-74
2022/09/27 00:07:43;;;;;;;3.10;1.10;;;14.00;81.30;;;;;;4980181;28;20034;-74
2022/09/27 00:10:09;;;;;;;3.78;1.10;;;14.00;81.70;;;;;;4974569;28;20038;-74
2022/09/27 00:12:36;;;;;;;3.47;1.10;;;14.00;81.90;;;;;;4979875;28;20038;-74
2022/09/27 00:15:03;;;;;;;2.03;1.05;;;14.00;81.50;;;;;;4978492;28;20038;-73
2022/09/27 00:17:29;;;;;;;1.52;1.10;;;14.00;81.10;;;;;;4972251;28;20037;-75
2022/09/27 00:19:57;;;;;;;1.98;0.90;;;14.00;81.40;;;;;;4975338;28;20031;-75
2022/09/27 00:22:24;;;;;;;4.47;1.30;;;14.10;81.30;;;;;;4971086;28;20027;-75
2022/09/27 00:24:50;;;;;;;1.40;0.90;;;14.00;81.40;;;;;;4970128;28;20041;-75
2022/09/27 00:27:17;;;;;;;3.42;1.17;;;14.00;81.50;;;;;;4979191;28;20037;-75
2022/09/27 00:29:45;;;;;;;1.58;0.90;;;14.00;81.30;;;;;;4991918;28;20125;-75
2022/09/27 00:32:12;;;;;;;1.90;1.23;;;13.90;81.70;;;;;;5003330;28;20467;-75
2022/09/27 00:34:39;;;;;;;3.30;1.20;;;13.90;82.10;;;;;;4982105;28;20059;-75
2022/09/27 00:37:04;;;;;;;4.53;1.30;;;13.90;82.00;;;;;;4973209;28;20090;-75
2022/09/27 00:39:30;;;;;;;2.45;1.23;;;13.90;81.70;;;;;;4973190;28;20046;-75
2022/09/27 00:41:56;;;;;;;1.10;1.00;;;14.00;81.80;;;;;;4977527;28;20173;-75
2022/09/27 00:44:25;;;;;;;1.75;1.25;;;14.00;81.80;;;;;;4976415;28;20034;-74
2022/09/27 00:47:15;;;;;;;2.75;1.33;;;14.00;82.10;;;;;;4979818;28;20144;-75
2022/09/27 00:49:54;;;;;;;1.05;0.90;;;14.00;81.50;;;;;;4975286;28;20040;-75
2022/09/27 00:52:25;;;;;;;1.60;1.05;;;14.00;81.80;;;;;;4991971;28;20126;-75
2022/09/27 00:54:56;;;;;;;2.15;1.10;;;14.00;81.50;;;;;;4971803;28;20466;-75
2022/09/27 00:57:23;;;;;;;2.17;1.20;;;14.00;82.00;;;;;;5004921;28;20031;-75
2022/09/27 00:59:53;;;;;;;2.95;1.17;;;14.00;81.70;;;;;;4966026;28;20117;-75
2022/09/27 01:02:19;;;;;;;1.92;1.00;;;14.00;81.70;;;;;;5007843;28;20042;-75
2022/09/27 01:04:46;;;;;;;2.25;1.10;;;14.00;81.80;;;;;;4979460;28;20037;-75
2022/09/27 01:07:13;;;;;;;2.80;1.15;;;14.00;82.10;;;;;;4993922;28;20030;-75
2022/09/27 01:09:39;;;;;;;1.70;1.27;;;14.00;82.00;;;;;;4981490;28;20031;-75
2022/09/27 01:12:43;;;;;;;2.17;1.08;;;14.00;82.00;;;;;;4974604;28;20042;-75
2022/09/27 01:15:24;;;;;;;2.88;1.10;;;13.90;82.10;;;;;;4957023;28;20030;-74
2022/09/27 01:18:22;;;;;;;3.78;1.05;;;13.90;81.90;;;;;;4973311;28;20050;-75
2022/09/27 01:21:22;;;;;;;1.80;1.10;;;13.90;82.20;;;;;;4968315;28;20704;-75
2022/09/27 01:24:09;;;;;;;1.83;1.00;;;13.90;82.40;;;;;;5002281;28;20061;-75
2022/09/27 01:27:19;;;;;;;1.95;0.90;;;13.90;82.60;;;;;;4989681;28;20030;-75
2022/09/27 01:30:24;;;;;;;1.67;0.85;;;13.90;82.60;;;;;;4988049;28;20045;-74
2022/09/27 01:33:10;;;;;;;4.53;0.80;;;13.80;82.80;;;;;;4989437;28;20061;-75
2022/09/27 01:35:54;;;;;;;1.88;1.10;;;13.90;82.80;;;;;;4999244;28;20030;-75
2022/09/27 01:38:44;;;;;;;1.23;0.90;;;13.80;82.60;;;;;;4988297;28;20034;-75
2022/09/27 01:41:40;;;;;;;1.30;0.90;;;13.80;83.20;;;;;;4990074;28;20030;-74
2022/09/27 01:44:39;;;;;;;0.73;0.65;;;13.90;83.10;;;;;;4992902;28;20030;-75
2022/09/27 01:47:17;;;;;;;2.80;0.80;;;13.90;82.90;;;;;;4979925;28;20030;-75
2022/09/27 01:49:55;;;;;;;1.55;0.80;;;14.00;82.60;;;;;;4987233;28;20046;-75
2022/09/27 01:52:30;;;;;;;2.22;0.98;;;14.00;82.70;;;;;;4971060;28;20035;-75
2022/09/27 01:54:59;;;;;;;0.80;0.80;;;14.00;82.60;;;;;;4991926;28;20058;-75
2022/09/27 01:57:38;;;;;;;1.67;1.00;;;14.00;82.60;;;;;;4976400;28;20026;-75
2022/09/27 02:00:09;;;;;;;1.60;0.82;;;14.00;82.70;;;;;;4989709;28;20938;-75
2022/09/27 02:02:59;;;;;;;3.80;1.00;;;14.00;82.50;;;;;;4978311;28;20035;-75
2022/09/27 02:05:31;;;;;;;1.48;0.73;;;14.10;82.40;;;;;;4973645;28;20054;-75
2022/09/27 02:08:10;;;;;;;0.93;0.93;;;14.00;82.40;;;;;;4976910;28;20258;-75
2022/09/27 02:10:42;;;;;;;1.50;0.73;;;14.00;82.50;;;;;;4990804;28;20595;-75
2022/09/27 02:13:42;;;;;;;3.35;1.30;;;14.00;82.60;;;;;;4969420;28;20080;-74
2022/09/27 02:17:12;;;;;;;1.05;0.82;;;14.00;82.60;;;;;;4978361;28;20074;-75
2022/09/27 02:20:07;;;;;;;1.08;0.82;;;14.00;83.10;;;;;;4956261;28;20039;-75
2022/09/27 02:22:50;;;;;;;1.25;0.80;;;14.00;83.60;;;;;;4973546;28;20053;-75
2022/09/27 02:25:40;;;;;;;1.73;0.70;;;14.00;84.10;;;;;;4989537;28;20442;-75
2022/09/27 02:28:39;;;;;;;1.00;0.80;;;14.00;83.90;;;;;;4985873;28;20035;-75
2022/09/27 02:31:08;;;;;;;2.67;1.00;;;14.00;84.70;;;;;;4986986;28;20375;-75
2022/09/27 02:33:51;;;;;;;1.10;0.85;;;14.00;84.40;;;;;;5001133;28;20031;-75
2022/09/27 02:36:18;;;;;;;1.85;0.93;;;14.00;84.20;;;;;;4985146;28;20058;-75
2022/09/27 02:38:44;;;;;;;2.15;1.15;;;14.00;84.90;;;;;;4978840;28;20045;-75
2022/09/27 02:41:18;;;;;;;2.97;0.93;;;14.00;84.40;;;;;;5004524;28;20031;-75
2022/09/27 02:43:48;;;;;;;1.65;0.90;;;13.90;85.10;;;;;;4984805;28;20037;-75
2022/09/27 02:46:28;;;;;;;0.90;0.90;;;13.90;85.20;;;;;;5002845;28;20039;-75
2022/09/27 02:49:19;;;;;;;2.65;0.93;;;13.90;85.40;;;;;;4979548;28;20038;-75
2022/09/27 02:52:25;;;;;;;5.85;1.08;;;13.90;85.50;;;;;;4985456;28;20062;-75
2022/09/27 02:55:17;;;;;;;3.40;1.00;;;13.90;85.40;;;;;;5004636;28;20031;-75
2022/09/27 02:58:14;;;;;;;4.47;0.90;;;13.90;86.00;;;;;;4988803;28;20039;-75
2022/09/27 03:01:26;;;;;;;5.10;1.00;;;13.90;85.80;;;;;;4966314;28;20039;-75
2022/09/27 03:04:39;;;;;;;3.85;0.95;;;13.90;85.90;;;;;;4987893;28;20039;-74
2022/09/27 03:07:06;;;;;;;1.77;1.02;;;13.80;86.30;;;;;;4988068;28;20050;-75
2022/09/27 03:09:47;;;;;;;0.93;0.80;;;13.80;86.40;;;;;;5011765;28;20112;-75
2022/09/27 03:12:14;;;;;;;1.88;1.00;;;13.80;87.20;;;;;;4986111;28;20696;-75
2022/09/27 03:14:40;;;;;;;1.52;0.95;;;13.70;88.00;;;;;;4994623;28;20037;-75
2022/09/27 03:17:26;;;;;;;1.23;1.03;;;13.70;88.00;;;;;;4980007;28;20035;-74
2022/09/27 03:20:10;;;;;;;1.98;1.10;;;13.80;88.50;;;;;;4977058;28;20357;-75
2022/09/27 03:22:48;;;;;;;0.77;0.77;;;13.70;88.60;;;;;;4983286;28;20104;-75
2022/09/27 03:25:14;;;;;;;2.38;1.02;;;13.70;89.00;;;;;;5005309;28;20839;-74
2022/09/27 03:27:40;;;;;;;1.85;1.00;;;13.60;89.60;;;;;;4981307;28;20037;-75
2022/09/27 03:30:06;;;;;;;1.55;1.02;;;13.70;90.00;;;;;;4992412;28;20652;-75
2022/09/27 03:32:32;;;;;;;1.20;0.85;;;13.70;89.70;;;;;;4975427;28;20089;-75
2022/09/27 03:35:11;;;;;;;2.50;1.00;;;13.60;89.70;;;;;;4979232;28;20495;-75
2022/09/27 03:37:37;;;;;;;2.00;1.00;;;13.60;90.00;;;;;;4995317;28;20023;-74
2022/09/27 03:40:04;;;;;;;1.77;1.00;;;13.60;90.00;;;;;;4976283;28;20030;-75
2022/09/27 03:42:30;;;;;;;1.30;1.20;;;13.50;90.30;;;;;;4994755;28;20023;-75
2022/09/27 03:44:56;;;;;;;1.95;1.40;;;13.40;90.40;;;;;;4977941;28;20073;-75
2022/09/27 03:47:22;;;;;;;1.05;0.90;;;13.50;90.50;;;;;;4974799;28;20042;-75
2022/09/27 03:49:48;;;;;;;3.05;1.02;;;13.40;90.70;;;;;;4987209;28;20089;-75
2022/09/27 03:52:15;;;;;;;1.48;0.90;;;13.40;90.80;;;;;;4973359;28;20031;-74
2022/09/27 03:54:41;;;;;;;2.58;1.20;;;13.40;91.00;;;;;;4980074;28;20561;-75
2022/09/27 03:57:10;;;;;;;1.08;0.98;;;13.40;91.00;;;;;;4991961;28;20069;-75
2022/09/27 03:59:37;;;;;;;3.67;1.33;;;13.50;90.90;;;;;;4973957;28;20045;-76
2022/09/27 04:02:32;;;;;;;4.70;1.13;;;13.40;91.00;;;;;;4972868;28;20038;-75
2022/09/27 04:05:18;;;;;;;0.95;0.95;;;13.40;91.20;;;;;;4979369;28;20481;-75
2022/09/27 04:07:48;;;;;;;1.98;1.10;;;13.40;91.30;;;;;;4971104;28;20085;-75
2022/09/27 04:10:16;;;;;;;1.30;1.20;;;13.40;91.40;;;;;;5008588;28;20494;-75
2022/09/27 04:12:43;;;;;;;1.20;0.93;;;13.40;91.30;;;;;;4985234;28;20039;-74
2022/09/27 04:15:09;;;;;;;2.13;1.10;;;13.40;91.40;;;;;;4989704;28;20034;-76
2022/09/27 04:18:10;;;;;;;1.17;1.00;;;13.40;91.40;;;;;;4988941;28;20557;-76
2022/09/27 04:21:08;;;;;;;3.50;1.33;;;13.50;91.50;;;;;;4973554;28;20054;-76
2022/09/27 04:23:37;;;;;;;1.95;1.10;;;13.40;91.70;;;;;;4987617;28;20030;-76
2022/09/27 04:26:04;;;;;;;2.40;1.25;;;13.30;91.90;;;;;;5005351;28;20039;-74
2022/09/27 04:28:50;;;;;;;2.15;1.20;;;13.30;92.30;;;;;;5004299;28;20088;-76
2022/09/27 04:31:16;;;;;;;1.40;1.25;;;13.30;92.30;;;;;;4994291;28;20038;-76
2022/09/27 04:33:59;;;;;;;1.40;1.30;;;13.20;92.80;;;;;;4979681;28;20031;-76
2022/09/27 04:36:28;;;;;;;2.25;1.20;;;13.20;92.70;;;;;;5004822;28;20026;-76
2022/09/27 04:39:06;;;;;;;2.75;1.33;;;13.20;92.90;;;;;;4983762;28;20080;-76
2022/09/27 04:41:35;;;;;;;2.22;1.27;;;13.20;92.90;;;;;;5004374;28;20030;-76
2022/09/27 04:44:01;;;;;;;2.22;1.25;;;13.10;93.10;;;;;;4984313;28;20155;-75
2022/09/27 04:46:30;;;;;;;1.55;1.30;;;13.10;93.30;;;;;;4999766;28;20118;-76
2022/09/27 04:48:58;;;;;;;1.75;1.30;;;13.10;93.40;;;;;;4989457;28;20852;-76
2022/09/27 04:51:23;;;;;;;4.10;1.50;;;13.10;93.40;;;;;;4979584;28;20109;-76
2022/09/27 04:53:49;;;;;;;1.80;1.48;;;13.10;93.70;;;;;;4982778;28;20028;-76
2022/09/27 04:56:16;;;;;;;3.78;1.52;;;13.10;93.90;;;;;;4973091;28;20023;-77
2022/09/27 04:58:43;;;;;;;1.67;1.17;;;13.00;93.90;;;;;;4987159;28;20033;-76
2022/09/27 05:01:09;;;;;;;1.73;1.30;;;13.00;94.00;;;;;;4999264;28;20038;-76
2022/09/27 05:03:57;;;;;;;2.25;1.45;;;13.00;94.10;;;;;;4974857;28;20119;-76
2022/09/27 05:06:25;;;;;;;1.40;1.30;;;13.10;94.30;;;;;;4988320;28;20847;-74
2022/09/27 05:08:53;;;;;;;1.77;1.50;;;13.00;94.30;;;;;;5007519;28;20552;-76
2022/09/27 05:11:27;;;;;;;3.45;1.40;;;13.10;94.50;;;;;;4974451;28;20623;-74
2022/09/27 05:14:16;;;;;;;3.38;1.30;;;13.10;94.50;;;;;;4962075;28;20498;-74
2022/09/27 05:17:06;;;;;;;1.40;1.30;;;13.00;94.50;;;;;;4975875;28;20516;-77
2022/09/27 05:19:38;;;;;;;2.42;1.50;;;13.00;94.80;;;;;;4973962;28;20046;-76
2022/09/27 05:22:10;;;;;;;1.40;1.17;;;13.00;94.90;;;;;;4999394;28;20542;-76
2022/09/27 05:24:37;;;;;;;1.60;1.42;;;13.00;95.00;;;;;;4979590;28;20504;-77
2022/09/27 05:27:06;;;;;;;2.55;1.75;;;13.00;95.10;;;;;;5001422;28;20042;-77
2022/09/27 05:29:36;;;;;;;2.65;1.42;;;13.00;95.10;;;;;;4980072;28;20170;-73
2022/09/27 05:32:07;;;;;;;3.40;1.38;;;13.00;95.00;;;;;;4987250;28;20033;-74
2022/09/27 05:34:33;;;;;;;1.63;1.42;;;13.00;95.20;;;;;;4983405;28;20022;-73
2022/09/27 05:36:59;;;;;;;1.70;1.50;;;13.00;95.20;;;;;;5001543;28;20069;-75
2022/09/27 05:39:26;;;;;;;2.33;1.70;;;13.00;95.30;;;;;;5001359;28;20045;-75
2022/09/27 05:41:53;;;;;;;3.00;1.58;;;13.00;95.50;;;;;;4969595;28;20038;-77
2022/09/27 05:44:19;;;;;;;3.03;1.70;;;13.00;95.40;;;;;;4964772;28;20129;-77
2022/09/27 05:47:02;;;;;;;4.10;1.60;;;13.00;95.50;;;;;;5003957;28;20088;-77
2022/09/27 05:49:28;;;;;;;3.65;1.70;;;13.00;95.60;;;;;;4986955;28;20034;-75
2022/09/27 05:51:54;;;;;;;4.15;1.33;;;12.90;95.70;;;;;;4972902;28;20033;-78
2022/09/27 05:54:19;;;;;;;2.25;1.60;;;12.90;95.60;;;;;;4973571;28;20030;-77
2022/09/27 05:56:45;;;;;;;2.72;1.58;;;13.00;95.70;;;;;;4989759;28;20502;-77
2022/09/27 05:59:31;;;;;;;2.40;1.83;;;13.00;95.70;;;;;;4978092;28;20075;-77
2022/09/27 06:02:17;;;;;;;3.45;1.63;;;13.00;95.80;;;;;;4971714;28;20049;-77
2022/09/27 06:04:51;;;;;;;3.33;1.40;;;12.90;95.70;;;;;;4974383;28;20054;-77
2022/09/27 06:07:38;;;;;;;1.73;1.60;;;13.00;96.10;;;;;;4973338;28;20042;-77
2022/09/27 06:10:07;;;;;;;2.13;1.42;;;12.90;96.20;;;;;;5002945;28;20292;-77
2022/09/27 06:12:34;;;;;;;2.75;1.42;;;12.90;96.30;;;;;;5004588;28;20026;-77
2022/09/27 06:15:01;;;;;;;2.80;1.73;;;12.90;96.30;;;;;;4981323;28;20430;-77
2022/09/27 06:17:35;;;;;;;3.03;1.45;;;12.90;96.50;;;;;;4982658;28;20026;-77
2022/09/27 06:20:09;;;;;;;3.10;1.80;;;12.90;96.60;;;;;;5004596;28;20030;-77
2022/09/27 06:22:36;;;;;;;4.85;1.73;;;12.90;96.50;;;;;;4991060;28;20141;-77
2022/09/27 06:25:03;;;;;;;1.52;1.30;;;12.90;96.50;;;;;;4988031;28;20031;-77
2022/09/27 06:27:33;;;;;;;1.80;1.70;;;12.90;96.60;;;;;;4990083;28;20026;-77
2022/09/27 06:30:06;;;;;;;2.58;1.48;;;12.90;96.50;;;;;;4975770;28;20815;-77
2022/09/27 06:32:46;;;;;;;4.50;1.80;;;13.00;96.60;;;;;;5010213;28;20026;-77
2022/09/27 06:35:20;;;;;;;2.25;1.40;;;13.00;96.40;;;;;;4988004;28;20052;-77
2022/09/27 06:37:46;;;;;;;2.33;1.60;;;13.00;96.30;;;;;;4985025;28;20453;-77
2022/09/27 06:40:13;;;;;;;4.88;1.60;;;13.10;96.60;;;;;;4990450;28;20490;-77
2022/09/27 06:43:07;;;;;;;1.50;1.40;;;13.10;96.40;;;;;;4976982;28;20046;-76
2022/09/27 06:46:04;;;;;;;2.50;1.55;;;13.10;96.30;;;;;;4975153;28;20049;-77
2022/09/27 06:48:50;;;;;;;3.33;1.30;;;13.10;96.30;;;;;;4968244;28;20035;-77
2022/09/27 06:51:17;;;;;;;3.15;1.75;;;13.20;96.40;;;;;;5003895;28;20031;-75
2022/09/27 06:53:43;;;;;;;6.00;1.90;;;13.20;96.30;;;;;;5011398;28;20034;-77
2022/09/27 06:56:09;;;;;;;1.30;1.20;;;13.20;96.30;;;;;;4991989;28;20027;-78
2022/09/27 07:01:54;;;;;;;1.73;1.38;;;13.30;96.00;;;;;;4999861;28;20042;-80
2022/09/27 07:04:46;;;;;;;1.90;1.52;;;13.20;96.10;;;;;;4978282;28;20038;-80
2022/09/27 07:07:36;;;;;;;2.20;1.45;;;13.30;96.30;;;;;;4983166;28;20034;-81
2022/09/27 07:10:02;;;;;;;3.35;1.42;;;13.20;96.00;;;;;;5012141;28;20033;-81
2022/09/27 07:12:28;;;;;;;1.23;0.88;;;13.20;96.40;;;;;;4985765;28;20033;-79
2022/09/27 07:14:54;;;;;;;2.83;1.52;;;13.20;96.10;;;;;;4993780;28;20027;-78
2022/09/27 07:17:20;;;;;;;2.47;1.20;;;13.30;96.30;;;;;;4997605;28;20092;-77
2022/09/27 07:19:48;;;;;;;1.50;1.05;;;13.20;96.20;;;;;;4987767;28;20041;-76
2022/09/27 07:22:14;;;;;;;1.55;1.25;;;13.30;96.30;;;;;;4980015;28;20274;-79
2022/09/27 07:24:42;;;;;;;1.35;1.10;;;13.30;96.30;;;;;;4983978;28;20084;-84
2022/09/27 07:27:09;;;;;;;1.95;1.58;;;13.30;96.50;;;;;;4982973;28;20506;-78
2022/09/27 07:29:35;;;;;;;1.42;1.33;;;13.50;96.30;;;;;;4991993;28;20045;-78
2022/09/27 07:32:02;;;;;;;1.83;1.40;;;13.50;96.10;;;;;;4978015;28;20030;-78
2022/09/27 07:34:28;;;;;;;2.90;1.20;;;13.50;96.00;;;;;;5003508;28;20031;-78
2022/09/27 07:36:58;;;;;;;2.28;1.25;;;13.50;96.00;;;;;;4986879;28;20904;-76
2022/09/27 07:39:25;;;;;;;1.75;1.40;;;13.60;96.20;;;;;;5003300;28;20027;-76
2022/09/27 07:41:53;;;;;;;2.10;1.40;;;13.70;96.30;;;;;;5010553;28;20049;-77
2022/09/27 07:44:22;;;;;;;1.85;1.40;;;13.70;95.80;;;;;;4990211;28;20038;-74
2022/09/27 07:47:18;;;;;;;1.83;1.20;;;13.80;95.80;;;;;;5077456;23;20062;-82
2022/09/27 07:50:22;;;;;;;1.35;1.20;;;13.90;95.80;;;;;;4933064;28;20059;-74
2022/09/27 07:52:55;;;;;;;4.45;1.10;;;13.90;95.80;;;;;;4931623;28;20037;-76
2022/09/27 07:55:52;;;;;;;1.10;1.10;;;14.00;95.50;;;;;;4941392;28;20051;-77
2022/09/27 07:58:21;;;;;;;1.45;1.20;;;13.90;95.10;;;;;;4962612;28;20035;-74
2022/09/27 08:00:48;;;;;;;2.22;0.95;;;13.90;95.30;;;;;;4969704;28;20031;-77
2022/09/27 08:03:16;;;;;;;2.72;1.45;;;13.90;95.40;;;;;;4969729;28;20570;-77
2022/09/27 08:05:46;;;;;;;2.58;1.25;;;13.80;95.20;;;;;;4960179;28;20031;-76
2022/09/27 08:08:14;;;;;;;1.98;1.05;;;13.80;95.60;;;;;;4958078;28;20043;-76
2022/09/27 08:10:43;;;;;;;1.33;1.10;;;13.80;95.50;;;;;;4969723;28;20038;-76
2022/09/27 08:13:10;;;;;;;6.07;1.42;;;13.80;95.60;;;;;;4959076;28;20023;-76
2022/09/27 08:15:37;;;;;;;1.35;1.20;;;13.90;95.50;;;;;;4978217;28;21053;-76
2022/09/27 08:18:08;;;;;;;2.15;1.38;;;13.90;95.20;;;;;;4972546;28;20031;-76
2022/09/27 08:20:58;;;;;;;1.30;1.17;;;13.90;95.40;;;;;;4955633;28;20517;-77
2022/09/27 08:23:47;;;;;;;2.40;1.33;;;13.90;95.60;;;;;;4965571;28;20067;-76
2022/09/27 08:26:20;;;;;;;1.35;1.00;;;13.90;95.50;;;;;;4975075;28;20442;-77
2022/09/27 08:28:55;;;;;;;2.35;1.13;;;14.00;95.30;;;;;;4972158;28;20043;-78
2022/09/27 08:31:25;;;;;;;0.88;0.88;;;14.10;95.10;;;;;;4974859;28;20812;-81
2022/09/27 08:33:55;;;;;;;1.27;1.10;;;14.10;95.10;;;;;;4975364;28;20498;-80
2022/09/27 08:36:22;;;;;;;3.42;1.20;;;14.20;95.10;;;;;;4975733;28;20498;-80
2022/09/27 08:38:49;;;;;;;1.83;1.00;;;14.20;95.00;;;;;;4964284;28;20042;-80
2022/09/27 08:41:42;;;;;;;1.77;1.23;;;14.30;95.10;;;;;;4968527;28;20117;-80
2022/09/27 08:44:47;;;;;;;1.02;0.75;;;14.40;94.90;;;;;;4940018;28;20050;-80
2022/09/27 08:47:20;;;;;;;2.20;1.20;;;14.30;94.70;;;;;;4958965;28;20039;-81
2022/09/27 08:49:55;;;;;;;1.67;1.10;;;14.40;94.90;;;;;;4978363;28;20111;-80
2022/09/27 08:52:31;;;;;;;3.03;1.20;;;14.40;94.80;;;;;;4969897;28;20034;-80
2022/09/27 08:55:03;;;;;;;1.40;1.27;;;14.30;94.50;;;;;;4977717;28;20833;-80
2022/09/27 08:57:29;;;;;;;3.10;1.20;;;14.30;95.10;;;;;;4982715;28;20117;-81
2022/09/27 09:00:09;;;;;;;2.40;1.23;;;14.40;95.00;;;;;;4968756;28;20035;-79
2022/09/27 09:02:36;;;;;;;2.00;1.10;;;14.30;94.30;;;;;;4979716;28;20583;-78
2022/09/27 09:05:08;;;;;;;1.02;1.00;;;14.30;94.40;;;;;;4967262;28;20106;-80
2022/09/27 09:08:08;;;;;;;2.47;1.10;;;14.40;94.80;;;;;;4962379;28;20041;-80
2022/09/27 09:13:40;;;;;;;1.30;1.20;;;14.60;94.50;;;;;;4961122;28;20546;-77
2022/09/27 09:16:10;;;;;;;1.38;1.20;;;14.70;93.90;;;;;;4971778;28;20804;-77
2022/09/27 09:19:24;;;;;;;2.60;1.25;;;14.70;93.70;;;;;;4975444;28;20027;-78
2022/09/27 09:22:56;;;;;;;2.47;1.40;;;14.70;94.00;;;;;;4912299;29;20127;-79
2022/09/27 09:25:42;;;;;;;1.42;1.20;;;14.60;93.80;;;;;;4970150;28;20126;-77
2022/09/27 09:28:37;;;;;;;;;;;14.60;94.10;;;;;;4974258;28;20044;-78
2022/09/27 09:31:37;;;;;;;1.25;1.10;;;14.60;94.20;;;;;;4974526;28;19913;-77
2022/09/27 09:34:16;;;;;;;2.22;1.40;;;14.70;94.10;;;;;;4955631;28;20034;-77
2022/09/27 09:36:55;;;;;;;2.55;1.40;;;14.70;93.80;;;;;;4954843;28;20060;-72
2022/09/27 09:39:40;;;;;;;1.90;1.30;;;14.70;93.90;;;;;;4957890;28;20129;-73
2022/09/27 09:42:13;;;;;;;1.40;1.30;;;14.70;93.90;;;;;;4977217;28;20045;-77
2022/09/27 09:44:56;;;;;;;1.70;1.60;;;14.80;94.00;;;;;;4967544;28;20062;-79
2022/09/27 09:47:44;;;;;;;5.18;1.40;;;14.90;93.90;;;;;;4972007;28;20840;-79
2022/09/27 09:50:21;;;;;;;2.08;1.63;;;15.00;94.10;;;;;;4961691;28;20074;-79
2022/09/27 09:52:54;;;;;;;2.75;1.50;;;15.00;93.40;;;;;;4964648;28;20038;-81
2022/09/27 09:55:27;;;;;;;2.30;1.40;;;15.00;93.60;;;;;;4982594;28;20486;-79
2022/09/27 09:58:00;;;;;;;1.67;1.33;;;15.20;93.80;;;;;;4978625;28;20811;-80
2022/09/27 10:00:31;;;;;;;1.40;1.30;;;15.30;93.10;;;;;;4958469;28;20109;-80
2022/09/27 10:02:58;;;;;;;5.28;1.70;;;15.30;92.40;;;;;;4958913;28;20030;-80
2022/09/27 10:05:26;;;;;;;1.55;1.33;;;15.20;92.30;;;;;;4975765;28;20041;-79
2022/09/27 10:08:06;;;;;;;3.33;1.40;;;15.20;92.60;;;;;;4981165;28;20720;-81
2022/09/27 10:10:33;;;;;;;1.10;1.10;;;15.20;92.50;;;;;;4960704;28;20075;-81
2022/09/27 10:13:19;;;;;;;1.73;1.48;;;15.20;92.20;;;;;;4962636;28;20183;-81
2022/09/27 10:16:01;;;;;;;3.20;1.70;;;15.30;91.60;;;;;;4981827;28;20026;-81
2022/09/27 10:18:28;;;;;;;4.10;1.33;;;15.30;91.80;;;;;;4962934;28;20408;-80
2022/09/27 10:21:06;;;;;;;1.80;1.20;;;15.30;91.70;;;;;;4960755;28;20027;-81
2022/09/27 10:23:31;;;;;;;2.53;1.33;;;15.40;91.80;;;;;;4969732;28;20164;-81
2022/09/27 10:26:09;;;;;;;3.95;1.30;;;15.40;91.40;;;;;;4963613;28;20042;-80
2022/09/27 10:28:47;;;;;;;2.95;1.20;;;15.40;91.80;;;;;;4964420;28;20892;-82
2022/09/27 10:31:19;;;;;;;1.08;1.00;;;15.50;91.90;;;;;;4972476;28;20034;-83
2022/09/27 10:34:06;;;;;;;1.98;1.20;;;15.70;91.30;;;;;;4979509;28;20104;-82
2022/09/27 10:36:39;;;;;;;1.45;1.10;;;15.80;90.70;;;;;;4985396;28;20042;-84
2022/09/27 10:39:19;;;;;;;1.45;1.20;;;16.00;90.50;;;;;;4976705;28;20035;-81
2022/09/27 10:41:45;;;;;;;1.80;1.45;;;16.10;90.00;;;;;;4967518;28;20510;-81
2022/09/27 10:44:25;;;;;;;3.28;1.10;;;16.10;89.00;;;;;;4960422;28;20035;-81
2022/09/27 10:47:08;;;;;;;1.13;1.00;;;16.10;89.20;;;;;;4960396;28;20042;-83
2022/09/27 10:50:03;;;;;;;1.80;1.10;;;16.20;88.50;;;;;;4962110;28;20053;-78
2022/09/27 10:52:42;;;;;;;3.53;1.20;;;16.30;88.10;;;;;;4957115;28;20026;-78
2022/09/27 10:55:23;;;;;;;1.48;0.80;;;16.30;87.90;;;;;;4952857;28;20031;-78
2022/09/27 10:57:54;;;;;;;2.83;0.80;;;16.20;86.40;;;;;;4982514;23;20105;-78
2022/09/27 11:00:31;;;;;;;3.92;1.38;;;16.00;88.40;;;;;;4976751;28;20046;-77
2022/09/27 11:03:03;;;;;;;9.18;1.33;;;15.70;90.00;;;;;;4982112;28;20035;-77
2022/09/27 11:05:37;;;;;;;4.90;1.00;;;15.40;90.70;;;;;;4977705;28;20010;-77
2022/09/27 11:08:18;;;;;;;2.15;0.80;;;15.20;91.10;;;;;;4980456;28;20124;-77
2022/09/27 11:11:00;;;;;;;;;;;15.00;91.60;;;;;;4972005;28;20026;-76
2022/09/27 11:13:31;;;;;;;;;;;14.80;91.90;;;;;;4981192;28;19922;-72
2022/09/27 11:16:06;;;;;;;2.03;0.63;;;14.70;92.50;;;;;;4985781;28;19914;-82
2022/09/27 11:18:55;;;;;;;0.70;0.70;;;14.50;92.80;;;;;;4973640;28;20030;-78
2022/09/27 11:21:44;;;;;;;0.55;0.50;;;14.50;93.30;;;;;;4973995;28;20062;-77
2022/09/27 11:24:10;;;;;;;2.25;0.75;;;14.40;93.60;;;;;;4974764;28;20489;-77
2022/09/27 11:26:47;;;;;;;0.82;0.82;;;14.40;93.90;;;;;;4983612;28;20030;-76
2022/09/27 11:29:31;;;;;;;0.70;0.70;;;14.40;94.10;;;;;;4977625;28;20383;-78
2022/09/27 11:32:40;;;;;;;1.73;0.80;;;14.30;94.20;;;;;;4960534;28;20096;-78
2022/09/27 11:35:13;;;;;;;1.20;0.90;;;14.30;94.60;;;;;;4980322;28;20132;-77
2022/09/27 11:37:59;;;;;;;1.85;1.38;;;14.40;94.80;;;;;;4979207;28;20094;-77
2022/09/27 11:40:59;;;;;;;1.10;1.10;;;14.40;94.90;;;;;;4993012;28;20034;-75
2022/09/27 11:43:38;;;;;;;1.42;1.30;;;14.40;95.00;;;;;;4988385;28;20038;-76
2022/09/27 11:46:17;;;;;;;4.07;1.73;;;14.50;95.20;;;;;;4978937;28;20041;-76
2022/09/27 11:49:23;;;;;;;2.15;1.60;;;14.50;95.10;;;;;;4984952;28;20030;-76
2022/09/27 11:51:54;;;;;;;3.10;2.80;;;14.50;95.00;;;;;;4980182;28;20034;-76
2022/09/27 11:54:41;;;;;;;2.85;2.40;;;14.50;94.50;;;;;;4968272;28;20549;-76
2022/09/27 11:57:22;;;;;;;3.83;3.40;;;14.50;94.60;;;;;;4970630;28;20117;-77
2022/09/27 11:59:48;;;;;;;3.53;2.85;;;14.50;94.80;;;;;;4975221;28;20549;-76
2022/09/27 12:02:46;;;;;;;1.63;1.52;;;14.50;94.70;;;;;;4979785;28;20072;-77
2022/09/27 12:05:27;;;;;;;2.22;1.70;;;14.50;94.80;;;;;;4960456;28;20062;-77
2022/09/27 12:08:24;;;;;;;5.65;4.60;;;14.50;94.90;;;;;;4979590;28;20402;-77
2022/09/27 12:10:56;;;;;;;10.30;6.95;;;14.60;95.20;;;;;;4976726;28;20167;-77
2022/09/27 12:13:47;;;;;;;5.15;4.13;;;14.70;95.40;;;;;;4976007;28;20026;-77
2022/09/27 12:16:16;;;;;;;6.65;6.05;;;14.90;95.50;;;;;;4980280;28;20034;-77
2022/09/27 12:18:43;;;;;;;8.95;5.25;;;15.10;95.60;;;;;;4969793;28;20031;-77
2022/09/27 12:21:35;;;;;;;4.03;3.58;;;15.30;95.60;;;;;;4957531;28;20034;-77
2022/09/27 12:24:02;;;;;;;5.53;2.60;;;15.40;95.10;;;;;;4986657;28;20038;-77
2022/09/27 12:26:42;;;;;;;8.68;6.95;;;15.50;94.80;;;;;;4973255;28;20030;-76
2022/09/27 12:29:40;;;;;;;7.53;6.32;;;15.60;94.90;;;;;;4962878;28;20116;-75
2022/09/27 12:32:30;;;;;;;3.13;2.88;;;15.70;93.70;;;;;;4976557;28;20030;-75
2022/09/27 12:35:15;;;;;;;1.90;1.80;;;15.60;92.40;;;;;;4972895;28;20030;-74
2022/09/27 12:37:45;;;;;;;1.85;1.75;;;15.50;92.60;;;;;;4971295;28;20357;-77
2022/09/27 12:40:20;;;;;;;3.28;1.20;;;15.40;92.40;;;;;;4975431;28;20498;-80
2022/09/27 12:43:05;;;;;;;4.18;2.72;;;15.30;92.60;;;;;;4977394;28;20125;-73
2022/09/27 12:46:02;;;;;;;2.42;1.40;;;15.20;92.60;;;;;;4970846;28;20042;-73
2022/09/27 12:48:47;;;;;;;4.13;2.75;;;15.10;92.80;;;;;;4974230;28;20450;-75
2022/09/27 12:51:16;;;;;;;3.45;2.70;;;15.20;93.40;;;;;;4973816;28;20150;-74
2022/09/27 12:54:11;;;;;;;3.78;2.00;;;15.20;93.30;;;;;;4975852;28;20031;-79
2022/09/27 12:56:46;;;;;;;2.88;2.15;;;15.30;93.00;;;;;;4974290;28;20485;-81
2022/09/27 12:59:45;;;;;;;3.97;1.38;;;15.20;92.50;;;;;;4974984;28;20383;-76
2022/09/27 13:02:29;;;;;;;5.45;3.20;;;15.20;92.50;;;;;;4975848;28;20038;-75
2022/09/27 13:05:25;;;;;;;4.47;2.85;;;15.20;91.70;;;;;;4974961;28;20069;-75
2022/09/27 13:08:16;;;;;;;2.60;2.40;;;15.10;91.80;;;;;;4980109;28;20718;-75
2022/09/27 13:11:04;;;;;;;3.63;2.90;;;15.00;92.00;;;;;;4976158;28;20050;-75
2022/09/27 13:13:34;;;;;;;10.57;6.55;;;15.00;92.20;;;;;;4979778;28;20402;-75
2022/09/27 13:16:01;;;;;;;10.65;5.45;;;15.00;92.10;;;;;;4977532;28;20212;-76
2022/09/27 13:18:53;;;;;;;6.25;3.35;;;14.90;92.30;;;;;;4980293;28;20037;-76
2022/09/27 13:21:38;;;;;;;;;;;14.90;92.30;;;;;;4975455;28;20058;-76
2022/09/27 13:24:40;;;;;;;12.23;6.72;;;14.90;92.60;;;;;;4980015;28;19920;-76
2022/09/27 13:27:35;;;;;;;8.13;5.10;;;14.90;92.40;;;;;;4973076;28;20561;-76
2022/09/27 13:30:11;;;;;;;7.70;5.78;;;14.90;92.00;;;;;;4986583;28;20089;-77
2022/09/27 13:33:07;;;;;;;4.40;2.97;;;14.90;92.20;;;;;;4990704;28;20027;-77
2022/09/27 13:35:39;;;;;;;5.80;4.07;;;14.80;92.10;;;;;;4971319;28;20037;-76
2022/09/27 13:38:22;;;;;;;3.72;3.25;;;14.90;92.30;;;;;;4974908;28;20034;-77
2022/09/27 13:40:49;;;;;;;7.80;4.65;;;15.00;92.40;;;;;;4978512;28;20442;-78
2022/09/27 13:43:46;;;;;;;7.28;4.22;;;15.10;92.60;;;;;;4980488;28;20045;-75
2022/09/27 13:46:34;;;;;;;7.55;4.10;;;15.10;92.10;;;;;;4969633;28;20042;-76